createdAt,value
2022-12-15T00:02:24.697Z,63.35
2022-12-15T00:05:09.680Z,62.37
2022-12-15T00:07:54.896Z,62.41
2022-12-15T00:10:40.218Z,61.71
2022-12-15T00:13:34.357Z,61.47
2022-12-15T00:16:20.022Z,61.10
2022-12-15T00:19:05.244Z,60.82
2022-12-15T00:21:50.828Z,60.69
2022-12-15T00:24:36.200Z,61.41
2022-12-15T00:27:21.510Z,62.13
2022-12-15T00:30:06.758Z,61.66
2022-12-15T00:32:52.017Z,61.96
2022-12-15T00:35:37.260Z,61.58
2022-12-15T00:38:28.617Z,61.10
2022-12-15T00:41:01.315Z,61.12
2022-12-15T00:43:36.208Z,60.43
2022-12-15T00:46:22.678Z,60.86
2022-12-15T00:48:49.770Z,60.42
2022-12-15T00:51:18.171Z,60.50
2022-12-15T00:54:04.556Z,60.44
2022-12-15T00:56:50.968Z,60.59
2022-12-15T00:59:36.226Z,60.42
2022-12-15T01:02:22.300Z,61.10
2022-12-15T01:05:07.300Z,61.06
2022-12-15T01:07:52.384Z,60.87
2022-12-15T01:10:38.311Z,60.79
2022-12-15T01:13:24.567Z,60.54
2022-12-15T01:16:09.985Z,60.94
2022-12-15T01:18:55.208Z,61.08
2022-12-15T01:21:24.588Z,60.82
2022-12-15T01:23:51.617Z,60.55
2022-12-15T01:26:18.123Z,60.14
2022-12-15T01:28:44.576Z,60.42
2022-12-15T01:31:12.617Z,60.73
2022-12-15T01:33:42.370Z,60.14
2022-12-15T01:36:11.767Z,60.45
2022-12-15T01:38:38.234Z,60.23
2022-12-15T01:41:12.361Z,60.31
2022-12-15T01:43:40.885Z,60.53
2022-12-15T01:46:12.615Z,60.00
2022-12-15T01:48:46.881Z,59.91
2022-12-15T01:51:25.091Z,59.71
2022-12-15T01:54:05.756Z,60.04
2022-12-15T01:56:40.244Z,59.89
2022-12-15T01:59:14.913Z,60.01
2022-12-15T02:01:41.670Z,60.59
2022-12-15T02:04:09.014Z,60.44
2022-12-15T02:06:36.429Z,60.32
2022-12-15T02:09:04.086Z,60.96
2022-12-15T02:12:01.222Z,60.64
2022-12-15T02:14:49.161Z,61.05
2022-12-15T02:17:53.139Z,60.79
2022-12-15T02:20:55.489Z,60.77
2022-12-15T02:23:53.725Z,61.42
2022-12-15T02:26:53.004Z,61.15
2022-12-15T02:30:07.786Z,60.97
2022-12-15T02:32:58.040Z,61.19
2022-12-15T02:35:37.434Z,61.02
2022-12-15T02:38:04.346Z,61.07
2022-12-15T02:40:30.845Z,60.68
2022-12-15T02:43:01.229Z,60.73
2022-12-15T02:46:15.143Z,60.36
2022-12-15T02:49:22.597Z,60.49
2022-12-15T02:52:30.968Z,60.32
2022-12-15T02:55:18.091Z,60.36
2022-12-15T02:57:53.451Z,60.80
2022-12-15T03:00:20.822Z,60.52
2022-12-15T03:02:55.526Z,60.61
2022-12-15T03:05:25.544Z,60.57
2022-12-15T03:07:54.529Z,60.42
2022-12-15T03:10:25.462Z,60.34
2022-12-15T03:12:52.417Z,59.98
2022-12-15T03:15:22.528Z,60.67
2022-12-15T03:17:49.018Z,60.12
2022-12-15T03:20:15.834Z,60.09
2022-12-15T03:22:42.342Z,60.01
2022-12-15T03:25:09.159Z,59.62
2022-12-15T03:27:35.835Z,59.63
2022-12-15T03:30:02.364Z,59.75
2022-12-15T03:32:29.922Z,59.54
2022-12-15T03:34:56.369Z,59.35
2022-12-15T03:37:22.912Z,59.92
2022-12-15T03:39:49.628Z,60.06
2022-12-15T03:42:36.095Z,61.20
2022-12-15T03:45:02.618Z,61.95
2022-12-15T03:47:29.132Z,61.32
2022-12-15T03:49:55.580Z,60.86
2022-12-15T03:52:22.076Z,60.56
2022-12-15T03:54:48.579Z,60.34
2022-12-15T03:57:15.066Z,60.33
2022-12-15T03:59:41.539Z,59.81
2022-12-15T04:02:12.152Z,59.74
2022-12-15T04:04:41.221Z,59.39
2022-12-15T04:07:07.739Z,60.56
2022-12-15T04:09:34.225Z,61.07
2022-12-15T04:12:03.214Z,60.75
2022-12-15T04:14:30.378Z,60.35
2022-12-15T04:16:57.212Z,61.11
2022-12-15T04:19:42.545Z,61.56
2022-12-15T04:22:11.562Z,62.45
2022-12-15T04:24:59.134Z,62.46
2022-12-15T04:27:44.486Z,62.19
2022-12-15T04:30:31.235Z,62.42
2022-12-15T04:33:17.631Z,62.11
2022-12-15T04:36:03.427Z,62.11
2022-12-15T04:38:50.195Z,62.03
2022-12-15T04:41:39.629Z,62.41
2022-12-15T04:44:25.993Z,61.96
2022-12-15T04:47:11.212Z,61.75
2022-12-15T04:49:56.613Z,61.40
2022-12-15T04:52:41.895Z,60.88
2022-12-15T04:55:27.708Z,60.29
2022-12-15T04:58:12.974Z,60.25
2022-12-15T05:00:58.136Z,60.28
2022-12-15T05:03:43.528Z,60.46
2022-12-15T05:06:28.714Z,61.46
2022-12-15T05:09:14.060Z,61.57
2022-12-15T05:11:59.332Z,62.03
2022-12-15T05:14:44.567Z,62.16
2022-12-15T05:17:29.789Z,62.55
2022-12-15T05:20:14.757Z,62.27
2022-12-15T05:23:00.077Z,62.39
2022-12-15T05:25:45.290Z,63.25
2022-12-15T05:28:30.574Z,63.02
2022-12-15T05:31:16.167Z,63.08
2022-12-15T05:33:42.647Z,62.72
2022-12-15T05:36:09.447Z,62.77
2022-12-15T05:38:35.941Z,62.33
2022-12-15T05:41:02.425Z,63.07
2022-12-15T05:43:29.389Z,63.06
2022-12-15T05:45:56.201Z,63.60
2022-12-15T05:48:22.696Z,63.42
2022-12-15T05:50:50.438Z,62.69
2022-12-15T05:53:16.952Z,61.90
2022-12-15T05:55:43.417Z,61.50
2022-12-15T05:58:09.922Z,60.97
2022-12-15T06:00:36.643Z,60.54
2022-12-15T06:03:03.242Z,60.49
2022-12-15T06:05:29.806Z,60.35
2022-12-15T06:07:56.304Z,60.40
2022-12-15T06:10:22.819Z,60.32
2022-12-15T06:12:49.295Z,60.25
2022-12-15T06:15:16.240Z,60.03
2022-12-15T06:17:42.693Z,60.89
2022-12-15T06:20:09.761Z,60.80
2022-12-15T06:22:36.191Z,60.86
2022-12-15T06:25:02.681Z,61.66
2022-12-15T06:27:29.256Z,62.16
2022-12-15T06:29:55.700Z,62.52
2022-12-15T06:32:22.247Z,63.05
2022-12-15T06:34:49.523Z,63.10
2022-12-15T06:37:16.041Z,63.59
2022-12-15T06:39:42.766Z,63.13
2022-12-15T06:42:09.271Z,63.51
2022-12-15T06:44:35.784Z,63.98
2022-12-15T06:47:02.444Z,64.35
2022-12-15T06:49:29.032Z,64.35
2022-12-15T06:51:55.505Z,64.14
2022-12-15T06:54:22.029Z,63.27
2022-12-15T06:56:49.883Z,63.08
2022-12-15T06:59:16.485Z,62.85
2022-12-15T07:01:43.466Z,62.79
2022-12-15T07:04:11.140Z,62.23
2022-12-15T07:06:39.937Z,62.61
2022-12-15T07:09:12.155Z,62.69
2022-12-15T07:11:38.712Z,63.44
2022-12-15T07:14:05.248Z,63.68
2022-12-15T07:16:32.490Z,63.56
2022-12-15T07:18:59.183Z,63.06
2022-12-15T07:21:25.703Z,63.01
2022-12-15T07:23:55.809Z,62.85
2022-12-15T07:26:24.097Z,62.97
2022-12-15T07:28:50.724Z,62.13
2022-12-15T07:31:17.883Z,61.95
2022-12-15T07:33:45.153Z,62.06
2022-12-15T07:36:11.805Z,62.09
2022-12-15T07:38:38.323Z,62.53
2022-12-15T07:41:09.314Z,62.40
2022-12-15T07:43:36.762Z,62.14
2022-12-15T07:46:05.796Z,62.51
2022-12-15T07:48:33.472Z,63.27
2022-12-15T07:51:10.984Z,62.51
2022-12-15T07:53:39.809Z,62.02
2022-12-15T07:56:09.389Z,61.93
2022-12-15T07:58:38.193Z,61.22
2022-12-15T08:01:08.946Z,60.97
2022-12-15T08:03:37.533Z,61.11
2022-12-15T08:06:11.169Z,60.84
2022-12-15T08:08:38.339Z,61.34
2022-12-15T08:11:14.961Z,60.86
2022-12-15T08:16:31.791Z,60.97
2022-12-15T08:18:58.418Z,61.49
2022-12-15T08:21:25.076Z,62.51
2022-12-15T08:23:51.542Z,62.19
2022-12-15T08:26:23.643Z,62.28
2022-12-15T08:29:07.219Z,62.47
2022-12-15T08:31:43.781Z,62.92
2022-12-15T08:34:11.144Z,62.80
2022-12-15T08:36:37.687Z,63.13
2022-12-15T08:39:04.397Z,62.82
2022-12-15T08:41:33.292Z,63.18
2022-12-15T08:44:02.271Z,63.38
2022-12-15T08:46:33.723Z,63.28
2022-12-15T08:49:01.914Z,62.89
2022-12-15T08:51:31.708Z,62.69
2022-12-15T08:54:00.771Z,62.60
2022-12-15T08:56:28.810Z,62.80
2022-12-15T08:58:59.185Z,63.00
2022-12-15T09:01:29.326Z,63.14
2022-12-15T09:03:57.441Z,63.49
2022-12-15T09:06:32.877Z,62.52
2022-12-15T09:09:04.041Z,61.88
2022-12-15T09:11:31.146Z,61.69
2022-12-15T09:13:58.461Z,62.41
2022-12-15T09:16:26.449Z,63.01
2022-12-15T09:18:56.175Z,63.13
2022-12-15T09:21:26.617Z,63.83
2022-12-15T09:24:00.051Z,63.27
2022-12-15T09:26:28.987Z,62.85
2022-12-15T09:28:55.988Z,62.73
2022-12-15T09:31:28.514Z,61.83
2022-12-15T09:33:58.392Z,62.15
2022-12-15T09:36:27.157Z,62.11
2022-12-15T09:38:53.713Z,61.32
2022-12-15T09:41:30.373Z,61.50
2022-12-15T09:44:04.358Z,62.36
2022-12-15T09:47:06.510Z,62.79
2022-12-15T09:49:53.709Z,62.53
2022-12-15T09:52:33.079Z,62.67
2022-12-15T09:55:01.808Z,62.87
2022-12-15T09:57:55.557Z,62.38
2022-12-15T10:00:34.537Z,62.52
2022-12-15T10:03:42.754Z,63.18
2022-12-15T10:06:33.933Z,62.86
2022-12-15T10:09:12.832Z,63.25
2022-12-15T10:12:07.010Z,63.32
2022-12-15T10:15:09.142Z,62.75
2022-12-15T10:17:56.399Z,62.42
2022-12-15T10:20:28.348Z,62.51
2022-12-15T10:23:05.959Z,62.29
2022-12-15T10:25:32.577Z,62.46
2022-12-15T10:28:28.326Z,62.62
2022-12-15T10:31:06.635Z,62.51
2022-12-15T10:36:29.364Z,62.71
2022-12-15T10:38:58.486Z,62.12
2022-12-15T10:41:28.302Z,61.93
2022-12-15T10:43:55.089Z,62.04
2022-12-15T10:46:28.466Z,61.80
2022-12-15T10:49:23.821Z,62.10
2022-12-15T10:52:00.111Z,62.18
2022-12-15T10:54:36.662Z,62.48
2022-12-15T10:57:23.611Z,62.86
2022-12-15T10:59:50.561Z,62.95
2022-12-15T11:02:34.284Z,62.74
2022-12-15T11:05:15.831Z,62.66
2022-12-15T11:07:55.106Z,62.89
2022-12-15T11:10:27.075Z,62.70
2022-12-15T11:13:10.350Z,62.38
2022-12-15T11:15:50.865Z,62.44
2022-12-15T11:18:42.911Z,62.37
2022-12-15T11:21:27.389Z,62.25
2022-12-15T11:24:05.553Z,62.67
2022-12-15T11:26:44.750Z,62.59
2022-12-15T11:29:26.974Z,63.13
2022-12-15T11:31:57.963Z,63.18
2022-12-15T11:34:46.640Z,62.97
2022-12-15T11:37:37.473Z,62.22
2022-12-15T11:40:33.041Z,62.51
2022-12-15T11:43:24.449Z,62.73
2022-12-15T11:46:27.094Z,62.66
2022-12-15T11:49:36.213Z,63.39
2022-12-15T11:52:30.142Z,63.66
2022-12-15T11:55:18.146Z,63.35
2022-12-15T11:58:13.886Z,62.94
2022-12-15T12:01:05.282Z,62.81
2022-12-15T12:04:28.559Z,63.60
2022-12-15T12:07:45.849Z,63.19
2022-12-15T12:10:34.085Z,62.92
2022-12-15T12:13:40.097Z,62.75
2022-12-15T12:16:28.851Z,62.99
2022-12-15T12:19:08.478Z,62.81
2022-12-15T12:21:46.955Z,62.92
2022-12-15T12:24:37.450Z,62.96
2022-12-15T12:27:33.466Z,63.17
2022-12-15T12:30:11.964Z,63.15
2022-12-15T12:33:03.355Z,63.19
2022-12-15T12:35:48.967Z,63.39
2022-12-15T12:38:24.719Z,63.04
2022-12-15T12:41:02.663Z,62.81
2022-12-15T12:43:43.064Z,62.51
2022-12-15T12:46:22.094Z,62.80
2022-12-15T12:49:00.173Z,62.67
2022-12-15T12:51:51.998Z,62.71
2022-12-15T12:54:36.898Z,62.81
2022-12-15T12:57:34.525Z,62.51
2022-12-15T13:00:08.138Z,62.96
2022-12-15T13:02:40.559Z,62.88
2022-12-15T13:05:31.401Z,62.85
2022-12-15T13:08:04.968Z,62.99
2022-12-15T13:10:36.222Z,63.07
2022-12-15T13:13:08.576Z,62.33
2022-12-15T13:15:43.020Z,62.60
2022-12-15T13:18:17.168Z,62.58
2022-12-15T13:20:48.945Z,62.14
2022-12-15T13:23:23.389Z,62.83
2022-12-15T13:25:56.015Z,62.79
2022-12-15T13:28:45.644Z,63.20
2022-12-15T13:31:18.776Z,63.11
2022-12-15T13:33:51.489Z,62.99
2022-12-15T13:36:36.876Z,62.65
2022-12-15T13:39:17.045Z,63.13
2022-12-15T13:42:15.361Z,62.72
2022-12-15T13:44:41.086Z,62.63
2022-12-15T13:47:16.925Z,62.42
2022-12-15T13:50:01.277Z,62.19
2022-12-15T13:53:17.716Z,61.97
2022-12-15T13:55:45.877Z,62.42
2022-12-15T13:58:20.537Z,62.21
2022-12-15T14:00:57.309Z,62.21
2022-12-15T14:03:24.334Z,62.50
2022-12-15T14:05:58.690Z,62.36
2022-12-15T14:08:30.406Z,62.30
2022-12-15T14:11:16.501Z,62.64
2022-12-15T14:16:35.533Z,62.71
2022-12-15T14:19:16.655Z,62.96
2022-12-15T14:22:03.439Z,63.29
2022-12-15T14:24:41.374Z,63.32
2022-12-15T14:27:08.527Z,63.08
2022-12-15T14:29:35.122Z,63.50
2022-12-15T14:32:02.517Z,63.47
2022-12-15T14:34:39.915Z,62.94
2022-12-15T14:37:17.152Z,63.50
2022-12-15T14:42:38.238Z,63.69
2022-12-15T14:45:05.753Z,63.70
2022-12-15T14:47:35.503Z,63.83
2022-12-15T14:50:11.237Z,63.99
2022-12-15T14:52:42.688Z,63.86
2022-12-15T14:55:21.190Z,63.44
2022-12-15T14:57:48.782Z,63.28
2022-12-15T15:00:36.792Z,63.20
2022-12-15T15:03:06.628Z,62.83
2022-12-15T15:03:11.638Z,63.29
2022-12-15T15:06:01.677Z,63.17
2022-12-15T15:08:37.029Z,63.51
2022-12-15T15:11:35.298Z,63.13
2022-12-15T15:14:12.702Z,63.69
2022-12-15T15:16:39.493Z,64.06
2022-12-15T15:19:07.066Z,64.02
2022-12-15T15:21:39.328Z,63.68
2022-12-15T15:24:11.879Z,64.38
2022-12-15T15:26:43.097Z,64.28
2022-12-15T15:29:39.319Z,64.12
2022-12-15T15:32:20.277Z,63.95
2022-12-15T15:34:47.952Z,64.03
2022-12-15T15:37:21.438Z,63.60
2022-12-15T15:39:50.676Z,63.81
2022-12-15T15:42:17.405Z,63.68
2022-12-15T15:44:44.843Z,63.94
2022-12-15T15:47:27.298Z,64.08
2022-12-15T15:49:58.429Z,64.12
2022-12-15T15:52:25.329Z,64.46
2022-12-15T15:54:53.551Z,64.29
2022-12-15T15:57:20.086Z,64.35
2022-12-15T15:59:46.939Z,64.15
2022-12-15T16:02:14.904Z,64.29
2022-12-15T16:04:43.224Z,64.00
2022-12-15T16:07:27.014Z,64.09
2022-12-15T16:09:54.928Z,64.50
2022-12-15T16:12:38.992Z,64.11
2022-12-15T16:15:18.858Z,64.01
2022-12-15T16:17:47.528Z,63.91
2022-12-15T16:20:17.841Z,63.96
2022-12-15T16:22:49.066Z,64.63
2022-12-15T16:25:48.493Z,64.24
2022-12-15T16:28:25.018Z,64.28
2022-12-15T16:30:52.253Z,64.82
2022-12-15T16:33:19.524Z,64.59
2022-12-15T16:35:49.956Z,64.43
2022-12-15T16:38:31.893Z,64.47
2022-12-15T16:41:06.614Z,64.54
2022-12-15T16:43:38.245Z,64.26
2022-12-15T16:46:06.357Z,64.17
2022-12-15T16:48:33.337Z,64.23
2022-12-15T16:51:00.161Z,64.28
2022-12-15T16:53:33.315Z,64.21
2022-12-15T16:56:04.720Z,64.43
2022-12-15T16:58:37.053Z,64.93
2022-12-15T17:01:04.044Z,64.52
2022-12-15T17:03:31.153Z,64.42
2022-12-15T17:06:01.976Z,64.07
2022-12-15T17:08:44.849Z,63.83
2022-12-15T17:11:18.227Z,64.64
2022-12-15T17:13:51.088Z,64.85
2022-12-15T17:16:19.980Z,64.46
2022-12-15T17:18:46.845Z,64.54
2022-12-15T17:21:34.943Z,63.78
2022-12-15T17:24:11.799Z,63.63
2022-12-15T17:26:38.549Z,63.87
2022-12-15T17:29:15.064Z,64.14
2022-12-15T17:31:41.558Z,64.37
2022-12-15T17:34:32.835Z,64.40
2022-12-15T17:37:06.334Z,64.29
2022-12-15T17:39:35.111Z,64.33
2022-12-15T17:42:02.543Z,64.01
2022-12-15T17:44:37.461Z,64.22
2022-12-15T17:47:08.232Z,64.15
2022-12-15T17:49:37.272Z,64.39
2022-12-15T17:52:29.033Z,65.20
2022-12-15T17:54:56.834Z,64.98
2022-12-15T17:57:23.440Z,64.26
2022-12-15T17:59:49.951Z,63.83
2022-12-15T18:02:16.790Z,64.35
2022-12-15T18:04:43.945Z,64.56
2022-12-15T18:07:22.786Z,64.68
2022-12-15T18:09:52.053Z,65.78
2022-12-15T18:12:26.238Z,66.16
2022-12-15T18:14:54.242Z,66.14
2022-12-15T18:17:20.977Z,65.78
2022-12-15T18:19:48.666Z,66.17
2022-12-15T18:22:24.422Z,65.77
2022-12-15T18:24:53.585Z,65.59
2022-12-15T18:27:28.075Z,66.36
2022-12-15T18:29:56.384Z,66.76
2022-12-15T18:32:26.779Z,65.70
2022-12-15T18:34:54.747Z,65.15
2022-12-15T18:37:24.495Z,65.21
2022-12-15T18:39:51.122Z,64.10
2022-12-15T18:42:21.341Z,64.10
2022-12-15T18:44:51.570Z,63.93
2022-12-15T18:47:21.987Z,63.80
2022-12-15T18:49:48.706Z,64.02
2022-12-15T18:52:22.791Z,64.28
2022-12-15T18:54:52.581Z,64.95
2022-12-15T18:57:27.300Z,64.46
2022-12-15T18:59:58.710Z,64.98
2022-12-15T19:02:25.348Z,64.40
2022-12-15T19:04:51.981Z,64.52
2022-12-15T19:07:18.756Z,64.40
2022-12-15T19:09:45.320Z,63.80
2022-12-15T19:12:18.959Z,64.65
2022-12-15T19:14:48.803Z,64.03
2022-12-15T19:17:39.914Z,64.01
2022-12-15T19:20:37.884Z,64.14
2022-12-15T19:23:05.491Z,64.25
2022-12-15T19:25:33.296Z,63.67
2022-12-15T19:28:00.702Z,63.79
2022-12-15T19:30:36.962Z,63.67
2022-12-15T19:33:07.353Z,63.03
2022-12-15T19:35:34.064Z,63.84
2022-12-15T19:38:03.236Z,63.66
2022-12-15T19:40:34.429Z,64.11
2022-12-15T19:43:02.740Z,64.41
2022-12-15T19:45:32.137Z,64.30
2022-12-15T19:47:59.480Z,64.75
2022-12-15T19:50:36.104Z,64.50
2022-12-15T19:53:13.274Z,65.22
2022-12-15T19:55:40.017Z,64.75
2022-12-15T19:58:33.634Z,65.04
2022-12-15T20:01:12.420Z,66.07
2022-12-15T20:03:39.523Z,66.22
2022-12-15T20:06:15.598Z,65.31
2022-12-15T20:08:45.581Z,64.86
2022-12-15T20:11:25.101Z,64.85
2022-12-15T20:13:53.110Z,64.46
2022-12-15T20:16:21.211Z,65.04
2022-12-15T20:18:54.553Z,65.11
2022-12-15T20:21:25.927Z,64.95
2022-12-15T20:24:07.078Z,64.12
2022-12-15T20:26:36.898Z,64.22
2022-12-15T20:29:09.911Z,64.25
2022-12-15T20:31:36.496Z,64.49
2022-12-15T20:34:03.138Z,65.47
2022-12-15T20:36:33.606Z,65.62
2022-12-15T20:39:00.205Z,66.52
2022-12-15T20:41:29.066Z,66.22
2022-12-15T20:43:57.245Z,66.27
2022-12-15T20:46:27.998Z,66.62
2022-12-15T20:48:55.486Z,66.66
2022-12-15T20:51:31.360Z,66.18
2022-12-15T20:54:01.614Z,66.33
2022-12-15T20:56:28.769Z,65.29
2022-12-15T20:58:59.476Z,64.74
2022-12-15T21:01:35.118Z,64.87
2022-12-15T21:04:25.350Z,64.23
2022-12-15T21:06:55.002Z,64.56
2022-12-15T21:09:22.779Z,63.94
2022-12-15T21:11:51.634Z,64.79
2022-12-15T21:14:22.527Z,65.14
2022-12-15T21:16:49.924Z,65.09
2022-12-15T21:20:06.285Z,65.39
2022-12-15T21:22:04.086Z,65.09
2022-12-15T21:24:31.616Z,65.38
2022-12-15T21:26:58.134Z,64.86
2022-12-15T21:29:28.073Z,64.58
2022-12-15T21:31:54.683Z,64.68
2022-12-15T21:34:22.048Z,63.65
2022-12-15T21:36:54.959Z,63.79
2022-12-15T21:39:33.469Z,63.31
2022-12-15T21:42:08.289Z,63.26
2022-12-15T21:44:34.813Z,63.01
2022-12-15T21:47:01.333Z,62.69
2022-12-15T21:49:27.870Z,62.80
2022-12-15T21:52:00.157Z,63.24
2022-12-15T21:54:33.117Z,63.08
2022-12-15T21:57:02.590Z,63.30
2022-12-15T21:59:32.933Z,63.43
2022-12-15T22:02:00.567Z,63.01
2022-12-15T22:04:34.057Z,62.61
2022-12-15T22:07:01.528Z,63.09
2022-12-15T22:09:28.046Z,64.33
2022-12-15T22:11:56.542Z,64.34
2022-12-15T22:14:33.651Z,64.67
2022-12-15T22:17:19.150Z,64.60
2022-12-15T22:19:45.724Z,65.59
2022-12-15T22:22:13.779Z,65.01
2022-12-15T22:24:40.655Z,64.25
2022-12-15T22:27:20.040Z,63.80
2022-12-15T22:29:48.437Z,63.41
2022-12-15T22:32:16.900Z,63.81
2022-12-15T22:34:43.399Z,63.98
2022-12-15T22:37:10.143Z,64.40
2022-12-15T22:39:36.601Z,64.56
2022-12-15T22:42:04.798Z,64.47
2022-12-15T22:44:37.196Z,64.53
2022-12-15T22:47:04.641Z,65.17
2022-12-15T22:49:37.894Z,64.98
2022-12-15T22:52:19.567Z,64.37
2022-12-15T22:54:46.421Z,63.76
2022-12-15T22:57:24.047Z,63.21
2022-12-15T23:00:07.271Z,62.72
2022-12-15T23:02:40.528Z,63.01
2022-12-15T23:05:09.669Z,62.84
2022-12-15T23:07:36.322Z,62.87
2022-12-15T23:10:22.379Z,63.31
2022-12-15T23:12:54.100Z,63.39
2022-12-15T23:15:45.275Z,63.49
2022-12-15T23:18:13.167Z,64.02
2022-12-15T23:20:40.316Z,64.39
2022-12-15T23:23:07.774Z,64.38
2022-12-15T23:25:34.820Z,64.21
2022-12-15T23:28:01.298Z,64.38
2022-12-15T23:30:27.925Z,64.04
2022-12-15T23:32:55.429Z,63.76
2022-12-15T23:35:27.613Z,63.95
2022-12-15T23:37:54.205Z,64.11
2022-12-15T23:40:22.573Z,64.31
2022-12-15T23:42:50.618Z,64.52
2022-12-15T23:45:17.986Z,64.30
2022-12-15T23:47:44.586Z,64.35
2022-12-15T23:50:11.152Z,63.67
2022-12-15T23:52:37.753Z,63.31
2022-12-15T23:55:05.000Z,62.90
2022-12-15T23:57:31.504Z,63.28
2022-12-15T23:59:57.967Z,62.95
